Time;durP1;ratioP1;P1;durP2;ratioP2;P2;SDS_P1;SDS_P2;PMS_P1;PMS_P2;Temp;Humidity;BMP_temperature;BMP_pressure;BME280_temperature;BME280_humidity;BME280_pressure;Samples;Min_cycle;Max_cycle;Signal;HPM_P1;HPM_P2
2023/07/04 00:01:05;;;;;;;10.20;9.50;;;;;;;13.05;100.00;100396.31;5013223;28;20986;-43
2023/07/04 00:03:34;;;;;;;10.67;9.60;;;;;;;13.05;100.00;100401.69;5014493;28;20831;-41
2023/07/04 00:06:02;;;;;;;11.20;10.03;;;;;;;13.05;100.00;100393.66;5014425;28;20444;-42
2023/07/04 00:08:33;;;;;;;11.20;10.40;;;;;;;13.08;100.00;100403.16;5013985;28;20436;-44
2023/07/04 00:11:02;;;;;;;12.37;11.67;;;;;;;13.09;100.00;100400.22;5013112;28;20572;-42
2023/07/04 00:13:31;;;;;;;11.60;10.90;;;;;;;13.14;100.00;100405.75;5014128;28;20501;-41
2023/07/04 00:16:00;;;;;;;11.53;10.77;;;;;;;13.18;100.00;100408.78;5014432;28;20421;-47
2023/07/04 00:18:29;;;;;;;11.40;10.90;;;;;;;13.24;100.00;100410.59;5014296;28;20502;-42
2023/07/04 00:20:59;;;;;;;12.37;11.47;;;;;;;13.25;100.00;100412.25;5012577;28;20476;-42
2023/07/04 00:23:31;;;;;;;12.40;11.80;;;;;;;13.29;100.00;100411.56;5005987;28;20505;-42
2023/07/04 00:25:59;;;;;;;12.10;11.43;;;;;;;13.32;100.00;100404.94;5014243;28;20433;-44
2023/07/04 00:28:27;;;;;;;13.27;11.93;;;;;;;13.36;100.00;100414.16;5013799;28;20814;-41
2023/07/04 00:30:56;;;;;;;13.90;12.50;;;;;;;13.36;100.00;100414.16;5012716;28;20457;-41
2023/07/04 00:33:27;;;;;;;14.90;12.90;;;;;;;13.41;100.00;100417.00;5013607;28;20889;-41
2023/07/04 00:36:00;;;;;;;15.13;13.67;;;;;;;13.38;100.00;100408.59;5014111;28;20512;-42
2023/07/04 00:38:32;;;;;;;14.33;13.13;;;;;;;13.44;100.00;100413.06;5014109;28;20429;-42
2023/07/04 00:41:01;;;;;;;14.00;13.20;;;;;;;13.44;100.00;100416.53;5012445;28;20504;-42
2023/07/04 00:43:45;;;;;;;13.33;12.57;;;;;;;13.44;100.00;100421.91;5013447;28;20581;-41
2023/07/04 00:46:14;;;;;;;14.50;13.57;;;;;;;13.46;100.00;100427.88;5013741;28;20483;-41
2023/07/04 00:48:45;;;;;;;13.30;12.43;;;;;;;13.45;100.00;100433.44;5013716;28;20433;-41
2023/07/04 00:51:21;;;;;;;13.83;13.03;;;;;;;13.44;100.00;100429.94;5012177;28;20472;-43
2023/07/04 00:53:53;;;;;;;13.83;12.80;;;;;;;13.45;100.00;100441.47;5013540;28;20563;-41
2023/07/04 00:56:24;;;;;;;12.00;11.50;;;;;;;13.45;100.00;100446.84;5013550;28;20487;-43
2023/07/04 00:58:54;;;;;;;13.07;12.37;;;;;;;13.46;100.00;100435.09;5013926;28;20487;-41
2023/07/04 01:01:22;;;;;;;13.43;12.47;;;;;;;13.46;100.00;100443.94;5011906;28;20468;-45
2023/07/04 01:03:52;;;;;;;12.50;11.80;;;;;;;13.49;100.00;100448.03;5013420;28;20432;-45
2023/07/04 01:06:27;;;;;;;13.13;11.90;;;;;;;13.49;100.00;100456.06;5013602;28;20448;-44
2023/07/04 01:09:00;;;;;;;13.53;12.57;;;;;;;13.49;100.00;100450.72;5013421;28;20977;-41
2023/07/04 01:11:32;;;;;;;12.37;11.60;;;;;;;13.46;100.00;100459.19;5012795;28;20453;-44
2023/07/04 01:13:59;;;;;;;11.70;11.10;;;;;;;13.42;100.00;100466.84;5013260;28;20473;-42
2023/07/04 01:16:29;;;;;;;12.37;11.37;;;;;;;13.40;100.00;100471.63;5013285;28;20906;-43
2023/07/04 01:18:59;;;;;;;12.10;11.50;;;;;;;13.39;100.00;100463.78;5012101;28;20434;-42
2023/07/04 01:21:28;;;;;;;12.77;12.00;;;;;;;13.35;100.00;100479.47;5012479;28;20873;-44
2023/07/04 01:24:05;;;;;;;12.90;11.60;;;;;;;13.27;100.00;100471.75;5004980;28;20492;-43
2023/07/04 01:26:37;;;;;;;12.37;11.50;;;;;;;13.17;100.00;100477.59;5012924;28;20822;-42
2023/07/04 01:29:08;;;;;;;11.80;11.20;;;;;;;13.08;100.00;100480.78;5012625;28;20508;-42
2023/07/04 01:31:36;;;;;;;13.30;12.23;;;;;;;12.98;100.00;100475.06;5012518;28;20461;-41
2023/07/04 01:34:06;;;;;;;12.23;11.20;;;;;;;12.90;100.00;100480.69;5013040;28;20914;-43
2023/07/04 01:36:37;;;;;;;12.90;12.20;;;;;;;12.81;100.00;100482.00;5012828;28;20473;-43
2023/07/04 01:39:06;;;;;;;12.23;11.73;;;;;;;12.75;100.00;100479.13;5012473;28;20461;-41
2023/07/04 01:41:35;;;;;;;12.87;11.83;;;;;;;12.70;100.00;100486.16;5012592;28;20540;-41
2023/07/04 01:44:06;;;;;;;11.80;11.43;;;;;;;12.62;100.00;100489.13;5012644;28;20582;-41
2023/07/04 01:46:35;;;;;;;12.20;11.70;;;;;;;12.56;100.00;100489.97;5012849;28;20429;-42
2023/07/04 01:49:04;;;;;;;13.80;12.80;;;;;;;12.54;100.00;100494.72;5012551;28;20421;-44
2023/07/04 01:51:35;;;;;;;13.30;12.60;;;;;;;12.48;100.00;100491.06;5012408;28;20457;-44
2023/07/04 01:54:05;;;;;;;12.87;12.23;;;;;;;12.41;100.00;100490.28;5012472;28;20535;-43
2023/07/04 01:56:37;;;;;;;12.87;11.83;;;;;;;12.38;100.00;100492.56;5012327;28;20429;-44
2023/07/04 01:59:07;;;;;;;13.00;12.30;;;;;;;12.29;100.00;100497.34;5012044;28;20429;-44
2023/07/04 02:01:35;;;;;;;12.20;11.70;;;;;;;12.27;100.00;100488.72;5012200;28;20973;-43
2023/07/04 02:04:03;;;;;;;11.83;11.33;;;;;;;12.25;100.00;100500.63;5012501;28;20843;-44
2023/07/04 02:06:31;;;;;;;12.80;12.30;;;;;;;12.20;100.00;100499.44;5012218;28;20445;-42
2023/07/04 02:08:58;;;;;;;14.20;13.00;;;;;;;12.18;100.00;100495.34;5012187;28;20437;-44
2023/07/04 02:11:26;;;;;;;14.20;12.83;;;;;;;12.16;100.00;100503.56;5011519;28;20489;-42
2023/07/04 02:13:57;;;;;;;12.87;11.97;;;;;;;12.16;100.00;100502.72;5012314;28;20476;-42
2023/07/04 02:16:24;;;;;;;13.80;12.83;;;;;;;12.14;100.00;100494.09;5012353;28;20433;-42
2023/07/04 02:18:52;;;;;;;12.90;12.37;;;;;;;12.11;100.00;100497.22;5012194;28;20532;-42
2023/07/04 02:21:26;;;;;;;13.40;12.67;;;;;;;12.10;100.00;100492.88;5011155;28;20468;-43
2023/07/04 02:23:54;;;;;;;13.97;13.37;;;;;;;12.06;100.00;100486.34;5004116;28;20437;-44
2023/07/04 02:26:22;;;;;;;14.13;13.20;;;;;;;12.10;100.00;100492.88;5012112;28;20885;-41
2023/07/04 02:28:50;;;;;;;12.83;12.33;;;;;;;12.09;100.00;100492.09;5012184;28;20530;-41
2023/07/04 02:31:20;;;;;;;13.43;12.60;;;;;;;12.09;100.00;100496.59;5011055;28;20465;-44
2023/07/04 02:33:48;;;;;;;13.20;12.70;;;;;;;12.07;100.00;100493.31;5011904;28;20483;-43
2023/07/04 02:36:16;;;;;;;20.43;13.97;;;;;;;12.06;100.00;100499.72;5011927;28;20886;-43
2023/07/04 02:38:45;;;;;;;13.57;12.97;;;;;;;12.06;100.00;100497.03;5012185;28;20429;-43
2023/07/04 02:41:13;;;;;;;14.13;13.13;;;;;;;12.05;100.00;100500.72;5011213;28;20481;-44
2023/07/04 02:43:41;;;;;;;13.07;12.10;;;;;;;12.05;100.00;100506.06;5011726;28;20923;-40
2023/07/04 02:46:09;;;;;;;12.80;12.03;;;;;;;12.05;100.00;100493.53;5011815;28;20491;-47
2023/07/04 02:48:38;;;;;;;14.47;13.77;;;;;;;12.08;100.00;100502.97;5011806;28;20498;-41
2023/07/04 02:51:06;;;;;;;13.90;13.00;;;;;;;12.06;100.00;100500.53;5011294;28;21024;-47
2023/07/04 02:53:34;;;;;;;14.60;13.63;;;;;;;12.09;100.00;100496.59;5011623;28;20429;-43
2023/07/04 02:56:01;;;;;;;13.67;13.17;;;;;;;12.11;100.00;100499.88;5011817;28;20436;-42
2023/07/04 02:58:29;;;;;;;14.63;13.93;;;;;;;12.13;100.00;100503.97;5011781;28;20527;-45
2023/07/04 03:00:57;;;;;;;14.67;13.80;;;;;;;12.14;100.00;100496.78;5011192;28;20557;-42
2023/07/04 03:03:24;;;;;;;15.03;14.10;;;;;;;12.17;100.00;100504.38;5011424;28;20433;-44
2023/07/04 03:05:54;;;;;;;14.90;14.20;;;;;;;12.20;100.00;100503.94;5011623;28;20487;-42
2023/07/04 03:08:22;;;;;;;15.20;14.20;;;;;;;12.23;100.00;100511.56;5011737;28;20433;-41
2023/07/04 03:10:50;;;;;;;14.57;13.53;;;;;;;12.27;100.00;100509.28;5011181;28;20539;-41
2023/07/04 03:13:18;;;;;;;14.60;13.60;;;;;;;12.31;100.00;100513.97;5011509;28;20439;-42
2023/07/04 03:15:46;;;;;;;14.53;13.83;;;;;;;12.40;100.00;100515.38;5011392;28;20559;-42
2023/07/04 03:18:14;;;;;;;13.93;13.03;;;;;;;12.43;100.00;100522.13;5011558;28;20827;-41
2023/07/04 03:20:42;;;;;;;13.70;13.00;;;;;;;12.47;100.00;100521.50;5010969;28;20469;-42
2023/07/04 03:23:11;;;;;;;14.70;13.50;;;;;;;12.50;100.00;100512.22;5002984;28;20425;-42
2023/07/04 03:25:39;;;;;;;13.50;12.83;;;;;;;12.55;100.00;100518.56;5011363;28;20523;-44
2023/07/04 03:28:07;;;;;;;13.90;13.13;;;;;;;12.57;100.00;100521.84;5011219;28;20971;-42
2023/07/04 03:30:34;;;;;;;13.57;12.77;;;;;;;12.60;100.00;100517.94;5010787;28;20467;-47
2023/07/04 03:33:02;;;;;;;15.23;14.07;;;;;;;12.60;100.00;100521.41;5011295;28;20931;-42
2023/07/04 03:35:30;;;;;;;15.03;13.70;;;;;;;12.67;100.00;100522.22;5011309;28;20483;-43
2023/07/04 03:38:08;;;;;;;15.37;14.30;;;;;;;12.71;100.00;100520.75;5011422;28;20432;-41
2023/07/04 03:40:37;;;;;;;14.60;13.47;;;;;;;12.74;100.00;100533.69;5010845;28;20468;-42
2023/07/04 03:43:05;;;;;;;14.30;13.30;;;;;;;12.64;100.00;100562.75;5013108;28;20493;-41
2023/07/04 03:45:32;;;;;;;16.57;15.27;;;;;;;12.62;100.00;100564.03;5014864;28;20464;-44
2023/07/04 03:48:00;;;;;;;14.87;13.30;;;;;;;12.63;100.00;100549.63;5014757;28;20432;-41
2023/07/04 03:50:28;;;;;;;15.97;14.77;;;;;;;12.77;100.00;100556.53;5014310;28;20465;-42
2023/07/04 03:52:56;;;;;;;15.03;13.97;;;;;;;12.86;100.00;100552.56;5014509;28;20433;-43
2023/07/04 03:55:24;;;;;;;14.63;13.33;;;;;;;12.93;100.00;100552.53;5014466;28;20542;-42
2023/07/04 03:57:53;;;;;;;14.97;14.27;;;;;;;12.96;100.00;100549.41;5014869;28;20956;-44
2023/07/04 04:00:20;;;;;;;15.00;14.00;;;;;;;13.03;100.00;100547.50;5014222;28;20465;-43
2023/07/04 04:02:48;;;;;;;15.87;14.93;;;;;;;13.06;100.00;100539.84;5014394;28;20436;-43
2023/07/04 04:05:17;;;;;;;14.60;13.57;;;;;;;13.11;100.00;100545.41;5014592;28;20783;-42
2023/07/04 04:07:44;;;;;;;14.27;13.13;;;;;;;13.22;100.00;100538.53;5014400;28;20463;-42
2023/07/04 04:10:12;;;;;;;14.70;13.83;;;;;;;13.39;100.00;100541.47;5013986;28;20488;-45
2023/07/04 04:12:40;;;;;;;14.47;13.37;;;;;;;13.57;100.00;100542.34;5014186;28;20494;-43
2023/07/04 04:15:10;;;;;;;16.10;14.73;;;;;;;13.76;100.00;100527.94;5014254;28;20469;-42
2023/07/04 04:17:38;;;;;;;14.70;13.63;;;;;;;13.96;100.00;100537.59;5014178;28;20433;-42
2023/07/04 04:20:07;;;;;;;15.50;13.80;;;;;;;14.05;100.00;100531.72;5013713;28;20469;-43
2023/07/04 04:22:39;;;;;;;17.20;15.23;;;;;;;14.32;100.00;100527.69;5007126;28;20500;-43
2023/07/04 04:25:08;;;;;;;14.77;14.07;;;;;;;14.58;100.00;100531.06;5013432;28;20448;-42
2023/07/04 04:27:36;;;;;;;14.97;13.77;;;;;;;14.74;100.00;100528.56;5014238;28;20448;-46
2023/07/04 04:30:08;;;;;;;14.43;13.67;;;;;;;14.89;100.00;100523.59;5013551;28;20511;-42
2023/07/04 04:32:37;;;;;;;13.97;13.37;;;;;;;14.88;100.00;100531.88;5013878;28;20433;-45
2023/07/04 04:35:08;;;;;;;14.50;13.90;;;;;;;14.78;100.00;100532.41;5014083;28;20542;-50
2023/07/04 04:37:35;;;;;;;14.70;13.80;;;;;;;14.63;100.00;100532.03;5014247;28;20468;-47
2023/07/04 04:40:05;;;;;;;15.37;14.47;;;;;;;14.53;100.00;100528.25;5013519;28;20527;-47
2023/07/04 04:42:34;;;;;;;13.80;13.20;;;;;;;14.42;100.00;100529.03;5013573;28;20814;-44
2023/07/04 04:45:03;;;;;;;14.17;13.07;;;;;;;14.60;100.00;100545.09;5013799;28;20440;-46
2023/07/04 04:47:33;;;;;;;14.80;13.67;;;;;;;16.45;100.00;100536.28;5013601;28;20460;-45
2023/07/04 04:50:04;;;;;;;15.73;14.23;;;;;;;17.95;100.00;100549.88;5013116;28;20563;-43
2023/07/04 04:52:32;;;;;;;14.70;13.80;;;;;;;19.16;100.00;100521.50;5013490;28;20429;-48
2023/07/04 04:55:01;;;;;;;13.50;12.50;;;;;;;20.32;100.00;100524.94;5013319;28;20472;-43
2023/07/04 04:57:29;;;;;;;16.30;12.90;;;;;;;21.38;100.00;100525.94;5013648;28;20962;-43
2023/07/04 04:59:59;;;;;;;13.03;11.93;;;;;;;22.45;100.00;100521.81;5012742;28;20865;-45
2023/07/04 05:02:30;;;;;;;11.93;11.13;;;;;;;23.05;100.00;100523.34;5013543;28;20776;-44
2023/07/04 05:04:59;;;;;;;11.47;10.77;;;;;;;23.79;100.00;100518.59;5013613;28;20798;-43
2023/07/04 05:07:28;;;;;;;10.80;10.17;;;;;;;24.49;94.61;100525.13;5013462;28;20436;-46
2023/07/04 05:09:57;;;;;;;9.63;8.80;;;;;;;23.71;89.74;100530.13;5012878;28;20514;-45
2023/07/04 05:12:25;;;;;;;8.27;7.57;;;;;;;23.84;93.65;100534.88;5012946;28;21030;-45
2023/07/04 05:14:53;;;;;;;8.73;6.23;;;;;;;23.61;83.23;100537.28;5013170;28;20479;-45
2023/07/04 05:17:21;;;;;;;6.73;6.13;;;;;;;23.14;86.18;100534.44;5013365;28;20437;-41
2023/07/04 05:19:51;;;;;;;6.10;5.70;;;;;;;23.48;91.09;100531.69;5002856;28;20827;-41
2023/07/04 05:22:20;;;;;;;6.77;6.00;;;;;;;23.10;86.13;100530.66;5007509;28;20429;-45
2023/07/04 05:24:49;;;;;;;6.67;6.17;;;;;;;23.14;85.33;100529.81;5009515;28;20998;-41
2023/07/04 05:27:16;;;;;;;8.00;6.33;;;;;;;23.62;81.44;100535.38;5013026;28;20448;-41
2023/07/04 05:29:47;;;;;;;5.93;5.47;;;;;;;24.09;85.17;100529.13;5012583;28;20480;-42
2023/07/04 05:32:15;;;;;;;6.37;5.70;;;;;;;24.12;85.73;100528.59;5012677;28;20468;-44
2023/07/04 05:34:46;;;;;;;6.40;5.80;;;;;;;25.21;78.86;100527.28;5012645;28;20510;-49
2023/07/04 05:37:14;;;;;;;5.70;5.30;;;;;;;25.98;69.78;100529.47;5012603;28;20447;-44
2023/07/04 05:39:42;;;;;;;5.57;5.23;;;;;;;26.49;70.23;100526.53;5012514;28;20456;-44
2023/07/04 05:42:11;;;;;;;5.63;5.23;;;;;;;27.11;62.71;100522.06;5012691;28;20459;-42
2023/07/04 05:44:39;;;;;;;13.07;5.50;;;;;;;27.60;56.14;100524.66;5012682;28;20803;-42
2023/07/04 05:47:07;;;;;;;5.23;4.73;;;;;;;28.18;60.78;100529.09;5012743;28;20846;-46
2023/07/04 05:49:35;;;;;;;5.47;4.80;;;;;;;28.56;56.91;100533.69;5012195;28;20540;-44
2023/07/04 05:52:03;;;;;;;4.87;4.47;;;;;;;28.89;51.70;100534.06;5012160;28;20461;-45
2023/07/04 05:54:30;;;;;;;4.77;4.33;;;;;;;29.31;57.08;100529.69;5012687;28;20263;-43
2023/07/04 05:56:58;;;;;;;4.70;4.27;;;;;;;29.74;55.41;100546.06;5012672;28;20280;-41
2023/07/04 05:59:27;;;;;;;5.23;4.13;;;;;;;28.99;52.88;100541.97;5012132;28;20225;-46
2023/07/04 06:01:55;;;;;;;5.77;4.20;;;;;;;29.17;48.43;100540.00;5012165;28;20718;-43
2023/07/04 06:04:23;;;;;;;5.27;3.90;;;;;;;29.52;47.14;100538.03;5012224;28;20201;-45
2023/07/04 06:06:52;;;;;;;6.20;3.50;;;;;;;29.58;48.05;100548.53;5011798;28;20205;-44
2023/07/04 06:09:22;;;;;;;5.40;3.90;;;;;;;29.85;42.48;100550.06;5012346;28;20205;-44
2023/07/04 06:11:50;;;;;;;9.90;3.50;;;;;;;28.57;45.23;100548.22;5012108;28;20256;-45
2023/07/04 06:14:28;;;;;;;5.33;3.83;;;;;;;27.82;45.98;100541.03;5012257;28;20193;-43
2023/07/04 06:17:00;;;;;;;5.30;3.23;;;;;;;27.45;46.44;100542.28;5012131;28;20722;-43
2023/07/04 06:19:27;;;;;;;4.37;3.73;;;;;;;26.21;48.06;100564.84;5011841;28;20220;-45
2023/07/04 06:21:55;;;;;;;3.77;3.30;;;;;;;25.62;49.25;100576.59;5010871;28;20491;-41
2023/07/04 06:24:25;;;;;;;4.57;3.47;;;;;;;25.01;45.02;100559.56;5005561;28;21153;-44
2023/07/04 06:26:53;;;;;;;3.50;2.73;;;;;;;25.16;45.06;100565.59;5011739;28;20441;-44
2023/07/04 06:29:20;;;;;;;4.10;3.03;;;;;;;25.30;44.12;100563.72;5011538;28;20935;-42
2023/07/04 06:31:49;;;;;;;8.13;3.37;;;;;;;25.84;44.42;100567.72;5011628;28;20461;-42
2023/07/04 06:34:18;;;;;;;4.37;3.40;;;;;;;26.42;44.99;100564.41;5012134;28;20436;-42
2023/07/04 06:36:49;;;;;;;6.60;3.57;;;;;;;26.71;42.10;100582.06;5012052;28;20473;-45
2023/07/04 06:39:17;;;;;;;4.77;2.93;;;;;;;27.05;41.80;100580.78;5011673;28;20496;-43
2023/07/04 06:41:45;;;;;;;5.00;3.03;;;;;;;26.98;43.09;100589.44;5011565;28;20467;-42
2023/07/04 06:44:13;;;;;;;4.03;3.10;;;;;;;27.42;42.51;100581.25;5012082;28;20428;-44
2023/07/04 06:46:42;;;;;;;5.47;3.43;;;;;;;26.98;41.84;100589.44;5012009;28;20497;-43
2023/07/04 06:49:10;;;;;;;2.80;2.50;;;;;;;27.30;42.03;100591.94;5011331;28;20951;-44
2023/07/04 06:51:39;;;;;;;3.93;3.53;;;;;;;27.11;44.95;100598.72;5011507;28;20502;-42
2023/07/04 06:54:07;;;;;;;6.00;3.13;;;;;;;27.67;45.21;100585.28;5011790;28;20483;-45
2023/07/04 06:56:36;;;;;;;6.77;3.50;;;;;;;27.95;45.50;100594.16;5011690;28;20483;-44
2023/07/04 06:59:05;;;;;;;8.57;3.80;;;;;;;28.30;45.88;100593.19;5011537;28;20463;-43
2023/07/04 07:01:33;;;;;;;4.60;3.37;;;;;;;28.11;46.49;100598.09;5011623;28;20806;-42
2023/07/04 07:04:02;;;;;;;4.20;3.63;;;;;;;28.11;45.38;100591.78;5011825;28;20505;-42
2023/07/04 07:06:31;;;;;;;6.90;3.50;;;;;;;28.34;44.78;100596.91;5011756;28;20428;-45
2023/07/04 07:09:03;;;;;;;3.90;3.60;;;;;;;28.50;44.18;100589.03;5011571;28;20758;-43
2023/07/04 07:11:31;;;;;;;4.60;3.37;;;;;;;28.83;44.43;100578.44;5011273;28;20229;-45
2023/07/04 07:13:59;;;;;;;6.00;4.30;;;;;;;28.31;44.28;100583.84;5011780;28;20197;-43
2023/07/04 07:16:27;;;;;;;6.50;3.80;;;;;;;27.67;44.94;100587.22;5011813;28;20287;-47
2023/07/04 07:18:56;;;;;;;4.50;4.00;;;;;;;26.59;47.43;100587.25;5014473;28;20298;-47
2023/07/04 07:21:27;;;;;;;5.17;4.67;;;;;;;24.42;54.68;100622.78;5014589;28;20312;-43
2023/07/04 07:23:55;;;;;;;17.63;6.20;;;;;;;22.85;72.23;100639.59;5015664;28;20435;-46
2023/07/04 07:26:28;;;;;;;5.73;4.37;;;;;;;21.30;69.41;100620.56;5015444;28;21021;-43
2023/07/04 07:28:56;;;;;;;3.53;3.23;;;;;;;20.41;74.25;100612.72;5015375;28;20439;-46
2023/07/04 07:31:27;;;;;;;9.17;4.20;;;;;;;19.50;77.74;100611.31;5014537;28;20479;-41
2023/07/04 07:34:01;;;;;;;6.03;4.03;;;;;;;18.99;87.18;100612.69;5014941;28;20432;-44
2023/07/04 07:36:31;;;;;;;5.93;4.53;;;;;;;18.38;94.43;100624.63;5015319;28;20471;-45
2023/07/04 07:39:02;;;;;;;5.90;4.93;;;;;;;17.99;100.00;100624.66;5015245;28;20435;-42
2023/07/04 07:41:34;;;;;;;6.27;4.80;;;;;;;17.62;100.00;100628.94;5014491;28;20448;-42
2023/07/04 07:44:03;;;;;;;5.00;4.60;;;;;;;17.42;100.00;100636.66;5015007;28;20429;-44
2023/07/04 07:46:30;;;;;;;6.33;5.50;;;;;;;17.11;100.00;100633.41;5014863;28;20482;-41
2023/07/04 07:48:58;;;;;;;7.30;5.63;;;;;;;17.10;100.00;100637.19;5014971;28;20429;-41
2023/07/04 07:51:26;;;;;;;5.83;5.53;;;;;;;18.21;100.00;100636.31;5014162;28;20889;-42
2023/07/04 07:53:56;;;;;;;9.20;5.40;;;;;;;19.22;100.00;100628.59;5014826;28;20436;-44
2023/07/04 07:56:25;;;;;;;6.40;5.60;;;;;;;19.22;100.00;100634.00;5014673;28;21037;-43
2023/07/04 07:58:54;;;;;;;6.43;4.83;;;;;;;19.18;100.00;100635.59;5014525;28;20487;-42
2023/07/04 08:01:24;;;;;;;6.67;6.07;;;;;;;18.79;100.00;100633.00;5014034;28;20886;-42
2023/07/04 08:03:52;;;;;;;6.73;6.17;;;;;;;18.47;100.00;100644.75;5014523;28;20946;-47
2023/07/04 08:06:22;;;;;;;7.83;5.60;;;;;;;18.33;100.00;100656.97;5014727;28;20439;-43
2023/07/04 08:08:50;;;;;;;10.87;6.13;;;;;;;18.75;100.00;100653.53;5014693;28;20878;-42
2023/07/04 08:11:19;;;;;;;10.50;5.57;;;;;;;18.96;100.00;100638.34;5013815;28;20522;-41
2023/07/04 08:13:47;;;;;;;8.27;6.70;;;;;;;19.07;100.00;100645.50;5014231;28;20436;-42
2023/07/04 08:16:20;;;;;;;11.03;6.43;;;;;;;19.44;100.00;100645.63;5014193;28;20946;-41
2023/07/04 08:18:49;;;;;;;12.90;6.30;;;;;;;19.42;100.00;100644.22;5014552;28;20527;-43
2023/07/04 08:21:17;;;;;;;10.20;6.47;;;;;;;19.48;100.00;100644.00;5013586;28;20472;-44
2023/07/04 08:23:45;;;;;;;9.60;6.50;;;;;;;19.35;100.00;100644.41;5014175;28;20811;-44
2023/07/04 08:26:17;;;;;;;7.80;6.17;;;;;;;19.16;100.00;100652.06;5013952;28;20428;-42
2023/07/04 08:28:45;;;;;;;10.40;5.73;;;;;;;18.81;100.00;100658.97;5013840;28;20429;-43
2023/07/04 08:31:15;;;;;;;10.10;6.57;;;;;;;18.61;100.00;100667.63;5013560;28;20473;-42
2023/07/04 08:33:44;;;;;;;6.60;5.97;;;;;;;18.92;100.00;100658.84;5014115;28;20433;-48
2023/07/04 08:36:14;;;;;;;9.23;5.73;;;;;;;19.13;100.00;100632.84;5013918;28;20827;-44
2023/07/04 08:38:43;;;;;;;6.80;5.97;;;;;;;19.32;100.00;100658.44;5013773;28;20467;-42
2023/07/04 08:41:22;;;;;;;5.57;5.07;;;;;;;19.55;93.14;100676.25;5013219;28;21017;-42
2023/07/04 08:43:53;;;;;;;5.03;4.57;;;;;;;19.97;91.61;100669.03;5013939;28;20464;-42
2023/07/04 08:46:21;;;;;;;4.53;4.20;;;;;;;20.25;86.44;100676.00;5013821;28;20568;-43
2023/07/04 08:48:51;;;;;;;5.47;3.70;;;;;;;20.53;83.38;100672.09;5013864;28;20429;-43
2023/07/04 08:51:29;;;;;;;4.80;4.40;;;;;;;20.69;83.85;100687.34;5013062;28;20488;-41
2023/07/04 08:53:59;;;;;;;5.43;4.97;;;;;;;20.45;82.15;100675.31;5013430;28;20433;-42
2023/07/04 08:56:33;;;;;;;4.53;4.13;;;;;;;20.51;82.17;100676.97;5013802;28;20502;-45
2023/07/04 08:59:12;;;;;;;10.40;4.53;;;;;;;20.58;84.37;100678.34;5013585;28;20528;-42
2023/07/04 09:01:57;;;;;;;4.10;3.70;;;;;;;20.47;83.33;100692.09;5012867;28;20491;-42
2023/07/04 09:04:38;;;;;;;5.17;4.70;;;;;;;20.33;82.31;100667.41;5013535;28;20483;-44
2023/07/04 09:07:15;;;;;;;11.83;5.57;;;;;;;20.45;83.76;100688.84;5013658;28;20428;-44
2023/07/04 09:09:52;;;;;;;7.33;4.83;;;;;;;20.45;82.20;100688.84;5012797;28;20464;-46
2023/07/04 09:12:20;;;;;;;6.13;4.40;;;;;;;20.55;85.23;100692.41;5013378;28;20452;-45
2023/07/04 09:14:55;;;;;;;10.30;4.10;;;;;;;20.56;86.93;100685.13;5013399;28;20436;-43
2023/07/04 09:17:28;;;;;;;8.13;4.70;;;;;;;20.70;88.45;100686.25;5013319;28;20479;-45
2023/07/04 09:19:58;;;;;;;6.80;4.87;;;;;;;20.80;86.21;100689.03;5012660;28;20866;-46
2023/07/04 09:22:26;;;;;;;4.80;3.97;;;;;;;21.15;84.63;100688.34;5012784;28;20437;-44
2023/07/04 09:24:53;;;;;;;5.30;3.50;;;;;;;21.57;80.28;100680.00;5012965;28;20494;-43
2023/07/04 09:27:21;;;;;;;5.10;4.27;;;;;;;21.30;77.55;100680.25;5013039;28;20436;-46
2023/07/04 09:29:50;;;;;;;5.73;5.00;;;;;;;21.67;80.93;100685.44;5012612;28;20464;-42
2023/07/04 09:32:17;;;;;;;8.80;4.37;;;;;;;21.23;82.45;100685.94;5012764;28;20441;-42
2023/07/04 09:34:48;;;;;;;9.80;5.30;;;;;;;21.67;85.41;100690.88;5012623;28;20922;-46
2023/07/04 09:37:19;;;;;;;5.07;4.57;;;;;;;22.02;82.54;100697.16;5013041;28;20473;-42
2023/07/04 09:39:51;;;;;;;5.60;5.13;;;;;;;22.25;78.15;100703.09;5011790;28;20468;-42
2023/07/04 09:42:25;;;;;;;6.40;4.70;;;;;;;22.53;77.16;100705.19;5012574;28;20421;-45
2023/07/04 09:45:20;;;;;;;8.53;5.40;;;;;;;21.62;77.73;100701.75;5012628;28;20439;-45
2023/07/04 09:47:48;;;;;;;5.57;5.07;;;;;;;22.19;76.42;100710.41;5012634;28;20423;-42
2023/07/04 09:50:24;;;;;;;4.90;4.47;;;;;;;22.26;77.37;100700.09;5012244;28;20887;-47
2023/07/04 09:53:02;;;;;;;5.63;3.87;;;;;;;22.46;77.01;100710.91;5012556;28;20429;-44
2023/07/04 09:55:30;;;;;;;6.17;4.20;;;;;;;22.63;72.82;100712.50;5012508;28;20435;-46
2023/07/04 09:58:16;;;;;;;6.20;3.87;;;;;;;22.63;68.24;100721.50;5012459;28;20568;-44
2023/07/04 10:00:45;;;;;;;5.23;4.70;;;;;;;22.23;67.81;100716.94;5011834;28;21066;-43
2023/07/04 10:03:15;;;;;;;7.33;4.60;;;;;;;22.32;70.29;100718.03;5012338;28;20839;-44
2023/07/04 10:05:48;;;;;;;12.77;3.50;;;;;;;22.23;69.26;100722.38;5012370;28;20447;-43
2023/07/04 10:08:18;;;;;;;5.50;3.90;;;;;;;22.54;67.61;100718.53;5012286;28;20425;-42
2023/07/04 10:10:51;;;;;;;5.87;4.33;;;;;;;22.26;68.91;100721.00;5011862;28;20469;-45
2023/07/04 10:13:23;;;;;;;7.53;5.03;;;;;;;22.31;69.84;100726.47;5012119;28;20934;-45
2023/07/04 10:15:51;;;;;;;5.20;4.73;;;;;;;22.36;67.25;100724.53;5012427;28;20436;-45
2023/07/04 10:18:28;;;;;;;4.87;4.20;;;;;;;22.02;65.87;100720.75;5012186;28;20472;-48
2023/07/04 10:20:58;;;;;;;5.40;4.57;;;;;;;22.10;67.53;100722.97;5011683;28;20498;-43
2023/07/04 10:23:29;;;;;;;8.67;5.77;;;;;;;22.28;66.20;100714.22;5012353;28;20428;-43
2023/07/04 10:26:00;;;;;;;5.67;3.83;;;;;;;22.46;64.48;100729.94;5012291;28;20425;-42
2023/07/04 10:28:29;;;;;;;9.40;4.57;;;;;;;22.82;62.96;100730.69;5011828;28;20958;-47
2023/07/04 10:31:02;;;;;;;4.13;3.73;;;;;;;23.21;62.88;100741.66;5011516;28;20567;-42
2023/07/04 10:33:38;;;;;;;4.33;3.93;;;;;;;23.10;58.40;100726.50;5012143;28;20440;-47
2023/07/04 10:36:10;;;;;;;6.60;4.37;;;;;;;23.46;58.07;100724.41;5012022;28;20494;-47
2023/07/04 10:38:43;;;;;;;6.40;4.53;;;;;;;22.98;59.49;100729.53;5012083;28;20471;-42
2023/07/04 10:41:20;;;;;;;5.17;3.97;;;;;;;22.24;60.41;100728.63;5011450;28;20468;-44
2023/07/04 10:43:53;;;;;;;5.20;4.80;;;;;;;21.83;60.38;100739.47;5011776;28;20915;-44
2023/07/04 10:46:25;;;;;;;4.43;4.00;;;;;;;21.50;59.72;100738.06;5011891;28;20436;-42
2023/07/04 10:48:59;;;;;;;6.00;4.90;;;;;;;21.42;58.60;100737.78;5011954;28;20475;-42
2023/07/04 10:51:30;;;;;;;5.77;4.53;;;;;;;21.36;60.41;100734.25;5012267;28;20448;-44
2023/07/04 10:54:00;;;;;;;6.43;4.67;;;;;;;21.22;63.21;100743.16;5016019;28;20433;-43
2023/07/04 10:56:32;;;;;;;8.43;4.40;;;;;;;21.01;63.90;100753.09;5016014;28;20432;-46
2023/07/04 10:59:06;;;;;;;13.20;4.97;;;;;;;21.15;65.36;100751.53;5015867;28;20479;-44
2023/07/04 11:01:38;;;;;;;5.10;4.60;;;;;;;21.07;66.13;100746.59;5015472;28;20444;-43
2023/07/04 11:04:11;;;;;;;9.00;5.17;;;;;;;21.34;68.00;100746.44;5015764;28;20483;-42
2023/07/04 11:06:44;;;;;;;10.27;5.00;;;;;;;21.31;69.53;100760.53;5015569;28;21000;-45
2023/07/04 11:09:16;;;;;;;16.13;5.00;;;;;;;20.91;70.39;100755.75;5015125;28;20428;-43
2023/07/04 11:11:51;;;;;;;8.77;5.07;;;;;;;20.49;71.89;100753.06;5015390;28;20550;-42
2023/07/04 11:14:25;;;;;;;7.20;4.80;;;;;;;20.47;77.09;100762.53;5015630;28;20463;-43
2023/07/04 11:16:55;;;;;;;7.43;4.80;;;;;;;21.00;73.82;100767.72;5015430;28;20437;-45
2023/07/04 11:19:26;;;;;;;10.37;5.20;;;;;;;21.57;68.32;100759.53;5014861;28;20452;-44
2023/07/04 11:22:13;;;;;;;8.30;5.73;;;;;;;21.76;60.84;100762.53;5015323;28;20506;-41
2023/07/04 11:24:46;;;;;;;4.93;4.47;;;;;;;21.85;59.92;100766.34;5015217;28;20436;-45
2023/07/04 11:27:16;;;;;;;6.93;5.00;;;;;;;21.47;59.14;100770.38;5015049;28;20932;-42